Time;durP1;ratioP1;P1;durP2;ratioP2;P2;SDS_P1;SDS_P2;PMS_P1;PMS_P2;Temp;Humidity;BMP_temperature;BMP_pressure;BME280_temperature;BME280_humidity;BME280_pressure;Samples;Min_cycle;Max_cycle;Signal;HPM_P1;HPM_P2
2021/08/23 00:01:01;;;;;;;;;0.00;0.00;;;;;26.78;42.03;101520.81;5074650;28;45849;-67
2021/08/23 00:03:27;;;;;;;;;0.00;0.00;;;;;26.79;42.28;101525.34;5056201;28;45489;-67
2021/08/23 00:05:52;;;;;;;;;0.00;0.00;;;;;26.78;42.81;101520.81;5074239;28;45576;-67
2021/08/23 00:08:18;;;;;;;;;0.00;0.00;;;;;26.79;42.73;101521.72;5074243;28;45735;-67
2021/08/23 00:10:45;;;;;;;;;0.00;0.00;;;;;26.80;42.43;101518.03;5056029;28;45487;-67
2021/08/23 00:13:10;;;;;;;;;0.00;0.00;;;;;26.78;42.98;101507.16;5056113;28;45346;-67
2021/08/23 00:15:37;;;;;;;;;0.00;0.00;;;;;26.79;42.45;101516.25;5074252;28;46184;-67
2021/08/23 00:18:04;;;;;;;;;0.00;0.00;;;;;26.77;42.19;101516.31;5074455;28;45409;-67
2021/08/23 00:20:50;;;;;;;;;0.00;0.00;;;;;26.77;42.71;101519.03;5077797;28;45459;-67
2021/08/23 00:23:19;;;;;;;;;0.00;0.00;;;;;26.77;42.28;101513.59;5078013;28;45786;-67
2021/08/23 00:25:44;;;;;;;;;0.00;0.00;;;;;26.74;42.41;101509.16;5077544;28;46315;-67
2021/08/23 00:28:12;;;;;;;;;1.00;0.00;;;;;26.75;42.39;101520.94;5077494;28;45397;-67
2021/08/23 00:30:37;;;;;;;;;0.00;0.00;;;;;26.74;42.92;101513.69;5059279;28;45408;-67
2021/08/23 00:33:03;;;;;;;;;0.00;0.00;;;;;26.75;42.82;101510.03;5077147;28;45363;-67
2021/08/23 00:35:29;;;;;;;;;0.00;0.00;;;;;26.74;42.84;101514.63;5076000;28;45374;-67
2021/08/23 00:37:55;;;;;;;;;0.00;0.00;;;;;26.73;42.76;101503.75;5077325;28;45698;-67
2021/08/23 00:40:22;;;;;;;;;0.00;0.00;;;;;26.73;42.90;101512.81;5059244;28;45461;-67
2021/08/23 00:42:47;;;;;;;;;0.00;0.00;;;;;26.74;42.37;101508.25;5077719;28;45505;-67
2021/08/23 00:45:13;;;;;;;;;0.00;0.00;;;;;26.73;42.42;101503.75;5058925;28;46132;-67
2021/08/23 00:47:38;;;;;;;;;0.00;0.00;;;;;26.72;42.66;101505.59;5077366;28;45456;-67
2021/08/23 00:50:04;;;;;;;;;0.00;0.00;;;;;26.71;42.33;101509.25;5077567;28;45424;-67
2021/08/23 00:52:29;;;;;;;;;0.00;0.00;;;;;26.73;42.34;101511.94;5077546;28;45442;-67
2021/08/23 00:54:55;;;;;;;;;0.00;0.00;;;;;26.72;42.81;101510.16;5076883;28;45432;-67
2021/08/23 00:57:21;;;;;;;;;0.00;0.00;;;;;26.71;42.35;101498.34;5076964;28;45436;-67
2021/08/23 00:59:48;;;;;;;;;0.00;0.00;;;;;26.71;42.70;101495.63;5077211;28;45488;-67
2021/08/23 01:02:20;;;;;;;;;0.00;0.00;;;;;26.71;42.71;101500.19;5077570;27;45304;-67
2021/08/23 01:05:07;;;;;;;;;0.00;0.00;;;;;26.70;42.33;101504.78;5076913;28;46073;-67
2021/08/23 01:07:40;;;;;;;;;0.00;0.00;;;;;26.69;43.04;101502.97;5077208;28;45535;-67
2021/08/23 01:10:14;;;;;;;;;0.00;0.00;;;;;26.69;42.96;101499.38;5077056;28;45402;-67
2021/08/23 01:12:41;;;;;;;;;0.00;0.00;;;;;26.69;42.98;101493.91;5077144;28;45369;-67
2021/08/23 01:15:07;;;;;;;;;0.00;0.00;;;;;26.66;42.89;101486.75;5076623;28;45468;-67
2021/08/23 01:17:33;;;;;;;;;0.00;0.00;;;;;26.67;42.50;101493.09;5076644;28;45607;-67
2021/08/23 01:20:03;;;;;;;;;0.00;0.00;;;;;26.66;42.40;101502.22;5076921;28;45446;-67
2021/08/23 01:22:36;;;;;;;;;0.00;0.00;;;;;26.64;42.80;101496.84;5076884;28;45462;-68
2021/08/23 01:25:04;;;;;;;;;0.00;0.00;;;;;26.61;42.94;101490.63;5076652;28;45430;-67
2021/08/23 01:27:34;;;;;;;;;0.00;0.00;;;;;26.67;42.88;101499.44;5076751;28;45480;-67
2021/08/23 01:30:11;;;;;;;;;0.00;0.00;;;;;26.66;43.15;101505.84;5075736;28;45421;-67
2021/08/23 01:32:39;;;;;;;;;0.00;0.00;;;;;26.66;42.61;101504.94;5076971;28;45847;-67
2021/08/23 01:35:06;;;;;;;;;0.00;0.00;;;;;26.66;42.77;101510.41;5074832;28;45511;-67
2021/08/23 01:37:33;;;;;;;;;0.00;0.00;;;;;26.64;42.48;101501.38;5075463;28;45455;-67
2021/08/23 01:39:58;;;;;;;;;0.00;0.00;;;;;26.65;42.70;101500.44;5058158;28;45485;-67
2021/08/23 01:42:24;;;;;;;;;0.00;0.00;;;;;26.65;42.60;101508.63;5058592;28;45476;-67
2021/08/23 01:44:50;;;;;;;;;0.00;0.00;;;;;26.64;43.02;101506.84;5057981;28;47146;-67
2021/08/23 01:47:16;;;;;;;;;0.00;0.00;;;;;26.64;42.83;101506.84;5076513;28;45484;-67
2021/08/23 01:49:42;;;;;;;;;0.00;0.00;;;;;26.65;42.46;101503.19;5075426;28;45699;-67
2021/08/23 01:52:09;;;;;;;;;0.00;0.00;;;;;26.64;42.38;101505.03;5076750;28;45439;-67
2021/08/23 01:54:35;;;;;;;;;0.00;0.00;;;;;26.65;43.00;101508.63;5076482;28;46140;-68
2021/08/23 01:57:00;;;;;;;;;0.00;0.00;;;;;26.64;42.68;101501.38;5057846;28;45931;-67
2021/08/23 01:59:25;;;;;;;;;0.00;0.00;;;;;26.60;42.66;101497.94;5076209;28;45683;-67
2021/08/23 02:01:51;;;;;;;;;0.00;0.00;;;;;26.65;42.78;101500.44;5076395;27;45748;-67
2021/08/23 02:04:16;;;;;;;;;0.00;0.00;;;;;26.65;42.74;101504.06;5057694;28;46209;-67
2021/08/23 02:06:42;;;;;;;;;0.00;0.00;;;;;26.66;42.57;101502.22;5057637;28;45429;-67
2021/08/23 02:09:08;;;;;;;;;0.00;0.00;;;;;26.65;42.53;101500.44;5076099;28;45910;-67
2021/08/23 02:11:35;;;;;;;;;0.00;0.00;;;;;26.65;42.72;101504.06;5058029;28;45432;-67
2021/08/23 02:14:01;;;;;;;;;0.00;0.00;;;;;26.64;42.90;101501.38;5057603;28;47030;-67
2021/08/23 02:16:26;;;;;;;;;0.00;0.00;;;;;26.61;42.71;101496.06;5075943;28;45831;-67
2021/08/23 02:18:51;;;;;;;;;0.00;0.00;;;;;26.66;42.59;101504.94;5075780;28;45621;-67
2021/08/23 02:21:21;;;;;;;;;0.00;0.00;;;;;26.65;42.45;101514.97;5076065;28;45682;-67
2021/08/23 02:23:53;;;;;;;;;0.00;0.00;;;;;26.65;42.97;101508.63;5075798;28;46109;-67
2021/08/23 02:26:19;;;;;;;;;0.00;0.00;;;;;26.63;42.53;101505.09;5075555;28;45684;-67
2021/08/23 02:28:45;;;;;;;;;0.00;0.00;;;;;26.64;42.60;101512.31;5075868;28;45468;-67
2021/08/23 02:31:10;;;;;;;;;0.00;0.00;;;;;26.65;43.04;101514.09;5075934;28;45401;-67
2021/08/23 02:33:36;;;;;;;;;0.00;0.00;;;;;26.61;43.09;101501.53;5075702;28;45607;-67
2021/08/23 02:36:01;;;;;;;;;0.00;0.00;;;;;26.64;42.62;101512.31;5074384;28;45887;-67
2021/08/23 02:38:27;;;;;;;;;0.00;0.00;;;;;26.64;43.09;101515.03;5075740;28;45390;-67
2021/08/23 02:40:52;;;;;;;;;0.00;0.00;;;;;26.62;42.91;101508.75;5056589;28;45532;-67
2021/08/23 02:43:17;;;;;;;;;0.00;0.00;;;;;26.63;42.65;101513.28;5075562;28;45605;-67
2021/08/23 02:45:43;;;;;;;;;0.00;0.00;;;;;26.62;43.17;101504.22;5075529;28;45408;-67
2021/08/23 02:48:08;;;;;;;;;0.00;0.00;;;;;26.60;42.60;101503.38;5075590;28;45422;-67
2021/08/23 02:50:33;;;;;;;;;0.00;0.00;;;;;26.61;42.47;101507.00;5075583;28;45366;-67
2021/08/23 02:52:59;;;;;;;;;0.00;0.00;;;;;26.59;42.84;101504.31;5075179;28;46162;-67
2021/08/23 02:55:26;;;;;;;;;0.00;0.00;;;;;26.61;43.06;101507.00;5075475;28;45756;-67
2021/08/23 02:57:51;;;;;;;;;0.00;0.00;;;;;26.59;43.05;101501.59;5075366;28;45555;-67
2021/08/23 03:00:16;;;;;;;;;0.00;0.00;;;;;26.60;43.03;101505.19;5075201;28;45796;-67
2021/08/23 03:02:42;;;;;;;;;0.00;0.00;;;;;26.58;43.07;101504.38;5056909;28;45781;-67
2021/08/23 03:05:07;;;;;;;;;0.00;0.00;;;;;26.59;42.65;101496.13;5075005;28;45436;-67
2021/08/23 03:07:33;;;;;;;;;0.00;0.00;;;;;26.57;42.65;101495.28;5075150;28;45841;-67
2021/08/23 03:09:58;;;;;;;;;0.00;0.00;;;;;26.59;42.68;101500.72;5075263;28;45510;-67
2021/08/23 03:12:24;;;;;;;;;0.00;0.00;;;;;26.58;42.99;101496.19;5074777;28;46171;-67
2021/08/23 03:14:50;;;;;;;;;0.00;0.00;;;;;26.58;43.14;101502.53;5075013;28;45464;-67
2021/08/23 03:17:16;;;;;;;;;0.00;0.00;;;;;26.58;42.68;101507.97;5075157;28;45339;-67
2021/08/23 03:19:42;;;;;;;;;0.00;0.00;;;;;26.58;43.13;101504.38;5075209;28;45740;-67
2021/08/23 03:22:07;;;;;;;;;0.00;0.00;;;;;26.58;42.88;101507.09;5074716;28;45530;-67
2021/08/23 03:24:33;;;;;;;;;0.00;0.00;;;;;26.58;43.00;101507.09;5074587;28;45426;-67
2021/08/23 03:26:59;;;;;;;;;0.00;0.00;;;;;26.58;42.48;101501.66;5074812;28;45291;-67
2021/08/23 03:29:24;;;;;;;;;0.00;0.00;;;;;26.54;43.01;101501.75;5075049;28;45704;-67
2021/08/23 03:31:51;;;;;;;;;0.00;0.00;;;;;26.57;43.08;101499.84;5074705;28;46175;-67
2021/08/23 03:34:17;;;;;;;;;0.00;0.00;;;;;26.57;42.79;101510.75;5073565;28;45678;-67
2021/08/23 03:36:47;;;;;;;;;0.00;0.00;;;;;26.54;43.13;101506.28;5074861;28;45821;-67
2021/08/23 03:39:16;;;;;;;;;0.00;0.00;;;;;26.54;42.86;101509.03;5075042;28;45417;-67
2021/08/23 03:41:42;;;;;;;;;0.00;0.00;;;;;26.51;42.88;101507.31;5074491;28;45761;-67
2021/08/23 03:44:09;;;;;;;;;0.00;0.00;;;;;26.54;43.00;101511.75;5074542;28;45458;-67
2021/08/23 03:46:34;;;;;;;;;0.00;0.00;;;;;26.53;43.20;101513.59;5074733;28;45441;-67
2021/08/23 03:49:00;;;;;;;;;0.00;0.00;;;;;26.53;42.72;101510.00;5075001;28;45822;-67
2021/08/23 03:51:26;;;;;;;;;0.00;0.00;;;;;26.51;42.66;101500.97;5074380;28;46079;-67
2021/08/23 03:53:52;;;;;;;;;0.00;0.00;;;;;26.52;43.39;101498.19;5078509;28;45411;-67
2021/08/23 03:56:19;;;;;;;;;0.00;0.00;;;;;26.53;43.13;101501.81;5081316;28;45425;-67
2021/08/23 03:58:44;;;;;;;;;0.00;0.00;;;;;26.52;42.83;101511.84;5062950;28;45675;-67
2021/08/23 04:01:09;;;;;;;;;0.00;0.00;;;;;26.51;42.92;101510.03;5081329;28;45901;-67
2021/08/23 04:03:35;;;;;;;;;0.00;0.00;;;;;26.52;43.07;101502.75;5081056;27;45411;-67
2021/08/23 04:06:00;;;;;;;;;0.00;0.00;;;;;26.51;43.45;101501.84;5081143;28;45709;-67
2021/08/23 04:08:27;;;;;;;;;0.00;0.00;;;;;26.51;42.89;101496.41;5081264;28;45599;-67
2021/08/23 04:10:52;;;;;;;;;0.00;0.00;;;;;26.51;42.97;101503.72;5081035;28;45523;-67
2021/08/23 04:13:17;;;;;;;;;0.00;0.00;;;;;26.50;43.21;101502.81;5062612;28;45928;-67
2021/08/23 04:15:46;;;;;;;;;0.00;0.00;;;;;26.50;42.84;101505.56;5081253;28;45508;-67
2021/08/23 04:18:12;;;;;;;;;0.00;0.00;;;;;26.49;42.87;101498.31;5081059;28;45488;-67
2021/08/23 04:20:39;;;;;;;;;0.00;0.00;;;;;26.52;43.37;101500.00;5081165;28;45501;-67
2021/08/23 04:23:05;;;;;;;;;0.00;0.00;;;;;26.51;43.07;101507.31;5080890;28;45653;-67
2021/08/23 04:25:36;;;;;;;;;0.00;0.00;;;;;26.49;43.28;101498.31;5081182;28;45537;-67
2021/08/23 04:28:02;;;;;;;;;0.00;0.00;;;;;26.51;43.43;101509.16;5081264;28;45446;-67
2021/08/23 04:30:27;;;;;;;;;0.00;0.00;;;;;26.50;43.19;101508.28;5080591;28;46278;-67
2021/08/23 04:32:59;;;;;;;;;0.00;0.00;;;;;26.52;43.18;101505.47;5062489;28;45353;-67
2021/08/23 04:35:25;;;;;;;;;0.00;0.00;;;;;26.52;43.28;101503.66;5079233;28;45448;-67
2021/08/23 04:37:50;;;;;;;;;0.00;0.00;;;;;26.51;43.28;101511.88;5062522;28;45410;-67
2021/08/23 04:40:15;;;;;;;;;0.00;0.00;;;;;26.50;43.10;101511.00;5080548;28;46682;-67
2021/08/23 04:42:41;;;;;;;;;0.00;0.00;;;;;26.52;43.24;101508.19;5080759;28;45390;-67
2021/08/23 04:45:08;;;;;;;;;0.00;0.00;;;;;26.52;42.95;101520.03;5062412;28;45778;-67
2021/08/23 04:47:33;;;;;;;;;0.00;0.00;;;;;26.52;43.34;101511.84;5080934;28;45393;-67
2021/08/23 04:49:59;;;;;;;;;0.00;0.00;;;;;26.53;43.05;101519.06;5080567;28;46149;-67
2021/08/23 04:52:25;;;;;;;;;0.00;0.00;;;;;26.53;42.86;101510.88;5080445;28;45433;-67
2021/08/23 04:54:51;;;;;;;;;0.00;0.00;;;;;26.54;42.79;101512.66;5080648;28;45516;-67
2021/08/23 04:57:19;;;;;;;;;0.00;0.00;;;;;26.54;42.92;101518.13;5062573;28;45867;-67
2021/08/23 04:59:44;;;;;;;;;0.00;0.00;;;;;26.54;42.90;101520.84;5080386;28;46360;-67
2021/08/23 05:02:09;;;;;;;;;0.00;0.00;;;;;26.54;42.86;101523.56;5080272;27;45486;-67
2021/08/23 05:04:35;;;;;;;;;0.00;0.00;;;;;26.52;43.22;101517.28;5079375;28;45380;-67
2021/08/23 05:07:00;;;;;;;;;0.00;0.00;;;;;26.54;43.25;101523.56;5077153;28;45451;-67
2021/08/23 05:09:25;;;;;;;;;0.00;0.00;;;;;26.55;42.74;101527.19;5076936;28;46043;-67
2021/08/23 05:11:51;;;;;;;;;0.00;0.00;;;;;26.52;42.58;101532.75;5077033;28;44918;-67
2021/08/23 05:14:16;;;;;;;;;0.00;0.00;;;;;26.55;43.23;101529.91;5077222;28;45690;-68
2021/08/23 05:16:41;;;;;;;;;0.00;0.00;;;;;26.54;42.87;101539.94;5077061;28;45362;-67
2021/08/23 05:19:07;;;;;;;;;0.00;0.00;;;;;26.54;42.67;101539.94;5076868;28;45412;-67
2021/08/23 05:21:33;;;;;;;;;0.00;0.00;;;;;26.55;42.72;101536.25;5076859;28;45386;-67
2021/08/23 05:23:58;;;;;;;;;0.00;0.00;;;;;26.55;43.16;101541.69;5077058;28;45364;-67
2021/08/23 05:26:23;;;;;;;;;0.00;0.00;;;;;26.55;43.26;101549.00;5077305;28;45428;-67
2021/08/23 05:28:49;;;;;;;;;0.00;0.00;;;;;26.53;43.19;101543.59;5076820;28;46096;-67
2021/08/23 05:31:14;;;;;;;;;0.00;0.00;;;;;26.53;42.73;101537.28;5058375;28;45417;-67
2021/08/23 05:33:39;;;;;;;;;0.00;0.00;;;;;26.57;43.15;101544.38;5058859;28;45357;-68
2021/08/23 05:36:05;;;;;;;;;0.00;0.00;;;;;26.58;43.25;101545.28;5075591;28;45430;-67
2021/08/23 05:38:30;;;;;;;;;0.00;0.00;;;;;26.57;43.04;101549.84;5076375;28;45419;-67
2021/08/23 05:40:56;;;;;;;;;0.00;0.00;;;;;26.57;43.34;101555.28;5076508;28;45452;-67
2021/08/23 05:43:21;;;;;;;;;0.00;0.00;;;;;26.56;42.73;101548.03;5076663;28;45851;-67
2021/08/23 05:45:46;;;;;;;;;0.00;0.00;;;;;26.57;42.91;101551.69;5058376;28;45456;-67
2021/08/23 05:48:12;;;;;;;;;0.00;0.00;;;;;26.58;43.14;101553.47;5076425;28;46363;-67
2021/08/23 05:50:37;;;;;;;;;0.00;0.00;;;;;26.59;43.14;101563.47;5076244;28;45706;-67
2021/08/23 05:53:03;;;;;;;;;0.00;0.00;;;;;26.58;43.01;101550.75;5076354;28;45403;-67
2021/08/23 05:55:28;;;;;;;;;0.00;0.00;;;;;26.58;43.05;101561.66;5076202;28;45553;-67
2021/08/23 05:57:55;;;;;;;;;0.00;0.00;;;;;26.59;43.26;101563.47;5076046;28;47090;-67
2021/08/23 06:00:20;;;;;;;;;0.00;0.00;;;;;26.58;43.24;101561.66;5057557;28;45510;-67
2021/08/23 06:02:46;;;;;;;;;0.00;0.00;;;;;26.60;43.11;101562.50;5076422;27;45503;-67
2021/08/23 06:05:12;;;;;;;;;0.00;0.00;;;;;26.58;42.85;101568.00;5076433;28;45515;-67
2021/08/23 06:07:38;;;;;;;;;0.00;0.00;;;;;26.61;42.77;101567.00;5076132;28;45386;-68
2021/08/23 06:10:04;;;;;;;;;0.00;0.00;;;;;26.60;42.78;101566.13;5075879;28;45435;-67
2021/08/23 06:12:30;;;;;;;;;0.67;0.00;;;;;26.63;42.73;101570.56;5076344;28;45417;-67
2021/08/23 06:14:55;;;;;;;;;0.00;0.00;;;;;26.63;42.65;101581.47;5076126;28;45550;-68
2021/08/23 06:17:20;;;;;;;;;0.00;0.00;;;;;26.63;42.96;101585.09;5075266;28;45475;-67
2021/08/23 06:19:46;;;;;;;;;0.00;0.00;;;;;26.64;42.78;101583.25;5075681;28;45403;-67
2021/08/23 06:22:13;;;;;;;;;0.00;0.00;;;;;26.65;43.07;101585.03;5075863;28;45534;-69
2021/08/23 06:24:38;;;;;;;;;5.67;5.67;;;;;26.57;43.26;101587.16;5057382;28;45443;-65
2021/08/23 06:27:04;;;;;;;;;3.33;3.33;;;;;26.35;43.22;101580.66;5075697;28;45494;-65
2021/08/23 06:29:29;;;;;;;;;5.33;5.33;;;;;26.20;43.71;101588.53;5074963;28;45499;-65
2021/08/23 06:31:55;;;;;;;;;6.33;5.33;;;;;26.02;44.21;101588.31;5075548;28;45488;-65
2021/08/23 06:34:21;;;;;;;;;6.00;5.67;;;;;25.85;44.30;101586.16;5075721;28;45444;-65
2021/08/23 06:36:47;;;;;;;;;6.67;6.67;;;;;25.68;44.42;101583.16;5074143;28;46644;-65
2021/08/23 06:39:13;;;;;;;;;7.67;7.67;;;;;25.51;44.89;101583.75;5075508;28;45337;-65
2021/08/23 06:41:39;;;;;;;;;8.67;8.67;;;;;25.33;45.20;101579.84;5075339;28;45373;-66
2021/08/23 06:44:04;;;;;;;;;8.33;8.33;;;;;25.19;45.65;101582.06;5075470;28;45616;-65
2021/08/23 06:46:31;;;;;;;;;8.50;7.00;;;;;25.07;46.25;101583.41;5056462;28;47169;-66
2021/08/23 06:48:56;;;;;;;;;12.00;10.33;;;;;24.97;46.30;101581.94;5075128;28;45425;-66
2021/08/23 06:51:24;;;;;;;;;11.67;10.67;;;;;24.83;46.65;101585.97;5075135;28;45820;-66
2021/08/23 06:53:50;;;;;;;;;9.67;8.67;;;;;24.70;47.06;101590.94;5074968;28;45427;-66
2021/08/23 06:56:15;;;;;;;;;8.33;8.33;;;;;24.58;47.08;101598.56;5074993;28;45406;-66
2021/08/23 06:58:41;;;;;;;;;9.33;9.33;;;;;24.46;47.60;101597.97;5074844;28;45600;-67
2021/08/23 07:01:06;;;;;;;;;8.67;8.67;;;;;24.31;47.97;101593.88;5075121;28;45864;-67
2021/08/23 07:03:32;;;;;;;;;9.00;9.00;;;;;24.19;48.08;101604.22;5075413;27;45422;-68
2021/08/23 07:06:00;;;;;;;;;8.33;8.33;;;;;24.07;48.42;101600.91;5074788;28;45429;-66
2021/08/23 07:08:25;;;;;;;;;11.00;10.00;;;;;23.99;48.33;101597.50;5056422;28;45821;-66
2021/08/23 07:10:52;;;;;;;;;10.33;10.33;;;;;23.93;48.68;101597.69;5075364;28;45358;-67
2021/08/23 07:13:17;;;;;;;;;10.67;10.67;;;;;23.86;49.07;101596.09;5075206;28;45405;-66
2021/08/23 07:15:43;;;;;;;;;9.67;8.67;;;;;23.81;49.65;101603.47;5074479;28;46007;-67
2021/08/23 07:18:09;;;;;;;;;9.00;9.00;;;;;23.76;49.68;101596.31;5074815;28;45600;-66
2021/08/23 07:20:34;;;;;;;;;9.00;7.00;;;;;23.77;49.73;101608.09;5075052;28;45468;-67
2021/08/23 07:22:59;;;;;;;;;8.00;7.33;;;;;23.76;49.57;101606.28;5056783;28;45733;-66
2021/08/23 07:25:25;;;;;;;;;9.00;9.00;;;;;23.76;49.25;101604.44;5074851;28;45437;-66
2021/08/23 07:27:50;;;;;;;;;14.67;13.00;;;;;23.75;49.63;101609.91;5073773;28;45510;-66
2021/08/23 07:30:16;;;;;;;;;10.33;10.33;;;;;23.71;49.58;101609.13;5074501;28;45460;-67
2021/08/23 07:32:43;;;;;;;;;10.33;9.33;;;;;23.69;49.97;101605.56;5074455;28;45400;-67
2021/08/23 07:35:08;;;;;;;;;10.33;10.33;;;;;23.68;50.09;101606.47;5073037;28;45409;-68
2021/08/23 07:37:37;;;;;;;;;12.33;12.33;;;;;23.55;49.97;101596.88;5074243;28;45436;-69
2021/08/23 07:40:06;;;;;;;;;10.33;8.00;;;;;23.53;50.25;101605.06;5074216;28;45540;-68
2021/08/23 07:42:31;;;;;;;;;12.33;11.00;;;;;23.54;50.02;101606.84;5056201;28;45742;-66
2021/08/23 07:44:56;;;;;;;;;7.67;7.67;;;;;23.54;50.28;101600.53;5074359;28;45453;-66
2021/08/23 07:47:22;;;;;;;;;9.00;7.33;;;;;23.56;49.80;101598.66;5055701;28;45423;-66
2021/08/23 07:49:47;;;;;;;;;9.33;9.33;;;;;23.54;49.85;101603.25;5074778;28;45433;-68
2021/08/23 07:52:12;;;;;;;;;10.33;10.33;;;;;23.49;50.21;101602.47;5075270;28;45717;-68
2021/08/23 07:54:38;;;;;;;;;12.67;12.67;;;;;23.48;50.13;101600.69;5074524;28;45372;-68
2021/08/23 07:57:04;;;;;;;;;11.33;11.33;;;;;23.47;50.44;101598.88;5056694;28;44709;-68
2021/08/23 07:59:30;;;;;;;;;7.00;7.00;;;;;23.47;50.34;101610.66;5074415;28;45486;-68
2021/08/23 08:01:55;;;;;;;;;11.67;10.33;;;;;23.53;50.07;101602.34;5074800;28;45414;-68
2021/08/23 08:04:21;;;;;;;;;13.00;10.67;;;;;23.56;49.96;101593.22;5074543;28;45471;-68
2021/08/23 08:06:46;;;;;;;;;9.00;9.00;;;;;23.54;49.81;101600.53;5055319;28;45776;-66
2021/08/23 08:09:13;;;;;;;;;9.00;9.00;;;;;23.49;50.18;101591.59;5074017;28;45755;-67
2021/08/23 08:11:38;;;;;;;;;9.33;8.33;;;;;23.50;49.88;101598.81;5074515;28;45500;-67
2021/08/23 08:14:04;;;;;;;;;11.33;8.00;;;;;23.54;49.84;101608.66;5073196;28;45007;-67
2021/08/23 08:16:29;;;;;;;;;10.00;10.00;;;;;23.58;50.17;101607.66;5073681;28;45494;-67
2021/08/23 08:18:55;;;;;;;;;7.67;7.67;;;;;23.61;50.24;101609.41;5074404;28;45470;-66
2021/08/23 08:21:23;;;;;;;;;10.00;8.67;;;;;23.65;49.61;101612.00;5073545;28;45522;-67
2021/08/23 08:23:53;;;;;;;;;9.33;8.33;;;;;23.65;49.62;101612.00;5074068;28;45333;-67
2021/08/23 08:26:20;;;;;;;;;9.33;8.33;;;;;23.71;49.79;101611.84;5073489;28;45495;-68
2021/08/23 08:28:45;;;;;;;;;5.67;5.00;;;;;23.81;49.77;101601.63;5073711;28;45492;-67
2021/08/23 08:31:10;;;;;;;;;3.67;3.67;;;;;23.94;49.90;101604.91;5055585;28;45503;-67
2021/08/23 08:33:37;;;;;;;;;5.33;5.33;;;;;24.07;49.74;101598.19;5073324;28;45534;-69
2021/08/23 08:36:02;;;;;;;;;2.67;2.67;;;;;24.22;49.42;101596.88;5072175;28;45511;-68
2021/08/23 08:38:28;;;;;;;;;5.33;4.00;;;;;24.34;49.26;101598.34;5073930;28;45497;-67
2021/08/23 08:40:58;;;;;;;;;5.00;5.00;;;;;24.48;49.03;101601.53;5076919;28;45284;-67
2021/08/23 08:43:24;;;;;;;;;2.00;2.00;;;;;24.59;48.60;101593.06;5077091;28;45486;-67
2021/08/23 08:45:50;;;;;;;;;5.00;5.00;;;;;24.71;48.73;101592.69;5077439;28;45465;-66
2021/08/23 08:48:19;;;;;;;;;3.00;3.00;;;;;24.81;48.16;101587.84;5058726;28;45390;-67
2021/08/23 08:50:44;;;;;;;;;3.67;3.00;;;;;24.90;47.89;101590.25;5077048;28;45614;-68
2021/08/23 08:53:09;;;;;;;;;1.00;1.00;;;;;25.02;47.87;101575.38;5076897;28;46565;-68
2021/08/23 08:55:36;;;;;;;;;1.33;1.33;;;;;25.12;47.88;101586.84;5076919;28;45437;-67
2021/08/23 08:58:06;;;;;;;;;2.00;2.00;;;;;25.19;47.40;101577.56;5075339;28;45817;-68
2021/08/23 09:00:35;;;;;;;;;1.33;0.33;;;;;25.30;47.40;101588.09;5077206;28;45322;-69
2021/08/23 09:03:00;;;;;;;;;1.33;1.33;;;;;25.35;47.27;101589.72;5076278;27;45391;-67
2021/08/23 09:05:36;;;;;;;;;3.67;2.00;;;;;25.46;47.00;101593.91;5076067;28;45691;-67
2021/08/23 09:08:02;;;;;;;;;2.00;2.00;;;;;25.54;46.93;101600.00;5065714;28;45324;-68
2021/08/23 09:10:27;;;;;;;;;2.00;2.00;;;;;25.60;46.85;101607.94;5076873;28;45694;-68
2021/08/23 09:13:05;;;;;;;;;3.00;3.00;;;;;25.66;46.85;101588.66;5057975;28;46914;-68
2021/08/23 09:15:30;;;;;;;;;2.00;2.00;;;;;25.72;46.56;101604.78;5076829;28;45456;-68
2021/08/23 09:18:00;;;;;;;;;1.67;1.67;;;;;25.79;46.38;101604.56;5076782;28;45434;-67
2021/08/23 09:20:26;;;;;;;;;3.33;3.33;;;;;25.83;46.12;101608.97;5076786;28;45453;-67
2021/08/23 09:22:52;;;;;;;;;1.33;1.33;;;;;25.87;46.29;101606.06;5076846;28;45417;-67
2021/08/23 09:25:24;;;;;;;;;1.33;1.33;;;;;25.92;46.00;101608.69;5076538;28;45574;-67
2021/08/23 09:28:00;;;;;;;;;3.00;3.00;;;;;25.95;45.87;101614.00;5076775;28;45644;-67
2021/08/23 09:30:25;;;;;;;;;3.00;2.00;;;;;25.99;46.00;101603.88;5076201;28;44879;-67
2021/08/23 09:32:51;;;;;;;;;5.00;3.33;;;;;26.02;45.87;101610.13;5074917;28;46591;-68
2021/08/23 09:35:51;;;;;;;;;3.00;3.00;;;;;26.06;45.89;101613.63;5075076;28;45575;-68
2021/08/23 09:38:18;;;;;;;;;3.00;3.00;;;;;26.08;45.79;101618.06;5013615;28;45434;-67
2021/08/23 09:40:45;;;;;;;;;5.00;3.00;;;;;26.10;45.72;101608.00;5013835;28;45414;-67
2021/08/23 09:43:15;;;;;;;;;1.00;1.00;;;;;26.13;45.58;101613.31;5013116;28;47072;-67
2021/08/23 09:45:52;;;;;;;;;3.33;2.00;;;;;26.13;45.63;101605.13;5013343;28;45550;-67
2021/08/23 09:48:18;;;;;;;;;2.00;2.00;;;;;26.18;45.31;101606.81;5013403;28;45570;-67
2021/08/23 09:50:49;;;;;;;;;2.67;2.67;;;;;26.20;45.79;101610.34;5012867;28;45478;-67
2021/08/23 09:53:17;;;;;;;;;3.00;3.00;;;;;26.21;45.29;101613.03;4999943;28;45678;-68
2021/08/23 09:55:51;;;;;;;;;2.33;2.33;;;;;26.24;45.15;101606.56;5011141;28;45532;-67
2021/08/23 09:58:17;;;;;;;;;1.67;1.67;;;;;26.26;45.29;101610.16;5013029;28;45385;-67
2021/08/23 10:00:44;;;;;;;;;2.67;2.67;;;;;26.28;45.03;101614.59;5005043;28;45441;-68
2021/08/23 10:03:22;;;;;;;;;2.00;2.00;;;;;26.30;44.97;101606.38;4993081;28;46138;-72
2021/08/23 10:05:49;;;;;;;;;5.00;4.33;;;;;26.29;45.17;101607.31;4993217;28;45794;-71
2021/08/23 10:08:21;;;;;;;;;4.00;4.00;;;;;26.32;45.06;101605.34;4993345;28;45512;-68
2021/08/23 10:10:46;;;;;;;;;5.00;5.00;;;;;26.34;45.18;101613.47;4986090;28;45520;-68
2021/08/23 10:13:13;;;;;;;;;4.00;4.00;;;;;26.32;44.94;101599.91;5027299;28;45737;-68
2021/08/23 10:15:40;;;;;;;;;3.33;3.33;;;;;26.41;44.65;101604.09;5056419;28;45534;-67
2021/08/23 10:18:06;;;;;;;;;3.67;3.67;;;;;26.42;45.02;101600.44;5057365;28;45422;-68
2021/08/23 10:20:33;;;;;;;;;4.00;4.00;;;;;26.44;44.80;101604.00;5076185;28;45405;-69
2021/08/23 10:23:01;;;;;;;;;3.67;2.67;;;;;26.48;45.19;101605.66;5075710;28;45950;-68
2021/08/23 10:25:27;;;;;;;;;3.00;3.00;;;;;26.50;44.49;101603.75;5075679;28;45549;-69
2021/08/23 10:28:03;;;;;;;;;1.67;1.67;;;;;26.47;44.78;101594.81;5075621;28;45538;-69
2021/08/23 10:30:29;;;;;;;;;3.00;1.33;;;;;26.52;44.43;101603.69;5057764;28;45426;-69
2021/08/23 10:32:54;;;;;;;;;3.67;3.67;;;;;26.53;44.46;101602.75;5075584;28;45808;-70
2021/08/23 10:35:21;;;;;;;;;4.67;4.67;;;;;26.54;44.69;101602.69;5074584;28;45438;-69
2021/08/23 10:37:48;;;;;;;;;3.00;2.33;;;;;26.54;44.80;101599.97;5075708;28;45493;-70
2021/08/23 10:40:15;;;;;;;;;1.00;1.00;;;;;26.54;44.81;101599.97;5075559;28;45432;-71
2021/08/23 10:42:48;;;;;;;;;1.67;1.67;;;;;26.57;44.37;101603.53;5075470;28;46657;-70
2021/08/23 10:45:17;;;;;;;;;3.00;3.00;;;;;26.58;44.57;101605.31;5075368;28;45420;-70
2021/08/23 10:47:44;;;;;;;;;2.67;2.67;;;;;26.59;44.70;101599.81;5075633;28;45769;-69
2021/08/23 10:50:20;;;;;;;;;3.00;3.00;;;;;26.60;44.44;101606.16;5075684;28;45574;-70
2021/08/23 10:52:48;;;;;;;;;1.00;1.00;;;;;26.60;44.60;101598.88;5075362;28;45490;-70
2021/08/23 10:55:31;;;;;;;;;2.33;2.33;;;;;26.59;44.51;101602.53;5075496;28;45472;-70
2021/08/23 10:58:04;;;;;;;;;2.33;2.33;;;;;26.58;44.54;101599.84;5075139;28;45479;-70
2021/08/23 11:00:38;;;;;;;;;2.00;2.00;;;;;26.58;44.42;101608.94;5074871;28;45414;-70
2021/08/23 11:03:06;;;;;;;;;2.00;2.00;;;;;26.58;44.36;101610.78;5073428;27;46114;-70
2021/08/23 11:05:34;;;;;;;;;2.00;2.00;;;;;26.58;44.60;101599.84;5074308;28;45424;-70
2021/08/23 11:08:03;;;;;;;;;3.00;2.00;;;;;26.57;44.76;101604.41;5074351;28;45772;-68
2021/08/23 11:10:30;;;;;;;;;2.00;1.00;;;;;26.58;44.44;101598.00;5056580;28;45511;-70
2021/08/23 11:12:57;;;;;;;;;3.00;3.00;;;;;26.59;44.74;101604.38;5078114;28;45563;-69
2021/08/23 11:15:31;;;;;;;;;1.67;1.67;;;;;26.59;44.82;101598.94;5078785;28;45438;-68
2021/08/23 11:18:05;;;;;;;;;4.00;3.00;;;;;26.60;45.35;101606.16;5059542;28;45386;-68
2021/08/23 11:20:33;;;;;;;;;2.00;2.00;;;;;26.62;45.35;101612.44;5074918;28;45468;-69
2021/08/23 11:23:10;;;;;;;;;1.33;1.33;;;;;26.62;45.54;101591.53;5077883;28;45426;-70